Time;durP1;ratioP1;P1;durP2;ratioP2;P2;SDS_P1;SDS_P2;PMS_P1;PMS_P2;Temp;Humidity;BMP_temperature;BMP_pressure;BME280_temperature;BME280_humidity;BME280_pressure;Samples;Min_cycle;Max_cycle;Signal;HPM_P1;HPM_P2
2022/12/12 00:00:51;;;;;;;22.27;12.98;;;;;;;0.46;91.85;101137.41;6252042;22;20074;-77
2022/12/12 00:03:17;;;;;;;19.70;11.85;;;;;;;0.47;91.56;101142.28;6279402;22;20012;-77
2022/12/12 00:05:44;;;;;;;21.48;11.55;;;;;;;0.49;91.66;101147.16;6278924;22;20365;-77
2022/12/12 00:08:11;;;;;;;21.13;12.65;;;;;;;0.50;91.66;101148.66;6279375;22;20596;-77
2022/12/12 00:10:37;;;;;;;20.60;12.15;;;;;;;0.49;91.41;101147.91;6279553;22;20016;-77
2022/12/12 00:13:04;;;;;;;22.25;12.75;;;;;;;0.49;91.49;101147.91;6279549;22;20433;-77
2022/12/12 00:15:31;;;;;;;22.45;12.43;;;;;;;0.49;91.45;101149.78;6279185;22;20021;-77
2022/12/12 00:17:57;;;;;;;19.70;11.70;;;;;;;0.48;91.48;101146.41;6279484;22;20016;-77
2022/12/12 00:20:24;;;;;;;24.85;12.98;;;;;;;0.48;91.34;101149.03;6278847;22;20393;-78
2022/12/12 00:22:50;;;;;;;23.83;12.52;;;;;;;0.46;91.35;101148.63;6279576;22;20016;-78
2022/12/12 00:25:17;;;;;;;21.30;13.07;;;;;;;0.50;91.32;101152.03;6278934;22;20461;-77
2022/12/12 00:27:43;;;;;;;21.58;13.30;;;;;;;0.50;91.47;101154.66;6279169;22;20016;-77
2022/12/12 00:30:11;;;;;;;20.02;12.85;;;;;;;0.50;91.60;101152.03;6278840;22;20017;-78
2022/12/12 00:32:37;;;;;;;20.38;11.95;;;;;;;0.50;91.60;101156.53;6279051;22;20464;-78
2022/12/12 00:35:04;;;;;;;20.27;11.95;;;;;;;0.48;91.24;101159.50;6278630;22;20433;-77
2022/12/12 00:37:30;;;;;;;19.73;12.05;;;;;;;0.44;91.45;101150.09;6279289;22;20005;-77
2022/12/12 00:39:57;;;;;;;20.52;12.35;;;;;;;0.43;91.48;101149.34;6279547;22;20039;-77
2022/12/12 00:42:26;;;;;;;19.92;12.35;;;;;;;0.41;91.57;101154.19;6279136;22;20012;-78
2022/12/12 00:44:52;;;;;;;20.63;12.25;;;;;;;0.40;91.75;101154.59;6280922;22;20016;-77
2022/12/12 00:47:19;;;;;;;22.77;13.02;;;;;;;0.42;91.96;101160.19;6252657;22;20031;-77
2022/12/12 00:49:45;;;;;;;21.38;12.43;;;;;;;0.43;91.70;101154.59;6280094;22;20016;-78
2022/12/12 00:52:12;;;;;;;21.30;12.88;;;;;;;0.44;91.93;101147.50;6280410;22;20016;-77
2022/12/12 00:54:39;;;;;;;20.85;12.40;;;;;;;0.41;91.95;101148.97;6280312;22;20031;-78
2022/12/12 00:57:05;;;;;;;23.70;13.23;;;;;;;0.43;91.85;101154.59;6253340;22;20024;-77
2022/12/12 00:59:32;;;;;;;19.60;12.63;;;;;;;0.44;91.96;101155.34;6280475;22;20039;-77
2022/12/12 01:01:58;;;;;;;20.92;13.00;;;;;;;0.45;91.89;101162.09;6280779;22;20016;-78
2022/12/12 01:04:25;;;;;;;22.85;13.30;;;;;;;0.48;92.06;101150.91;6280550;22;20438;-78
2022/12/12 01:06:51;;;;;;;21.80;13.70;;;;;;;0.45;91.96;101157.59;6280803;22;20016;-78
2022/12/12 01:09:18;;;;;;;22.27;12.23;;;;;;;0.47;91.88;101158.00;6280554;22;20016;-78
2022/12/12 01:11:45;;;;;;;23.05;12.52;;;;;;;0.45;91.92;101159.47;6280379;22;20012;-78
2022/12/12 01:14:11;;;;;;;22.75;13.52;;;;;;;0.45;91.62;101156.84;6280494;22;20016;-78
2022/12/12 01:16:38;;;;;;;23.58;13.00;;;;;;;0.43;91.84;101164.31;6280846;22;20066;-78
2022/12/12 01:19:06;;;;;;;23.55;13.40;;;;;;;0.42;91.88;101160.19;6280037;22;20017;-78
2022/12/12 01:21:32;;;;;;;22.20;13.23;;;;;;;0.40;91.92;101168.41;6253390;22;20032;-78
2022/12/12 01:24:00;;;;;;;24.42;13.27;;;;;;;0.42;91.86;101162.81;6280961;22;20016;-78
2022/12/12 01:26:27;;;;;;;22.20;12.95;;;;;;;0.41;91.56;101156.81;6280636;22;20019;-78
2022/12/12 01:28:53;;;;;;;22.58;13.02;;;;;;;0.40;91.70;101165.06;6280442;22;20023;-78
2022/12/12 01:31:20;;;;;;;25.90;12.80;;;;;;;0.39;91.99;101169.53;6280582;22;20012;-79
2022/12/12 01:33:47;;;;;;;23.83;13.73;;;;;;;0.39;92.08;101171.41;6280169;22;20020;-78
2022/12/12 01:36:16;;;;;;;22.25;13.10;;;;;;;0.39;92.05;101174.03;6280730;22;20054;-78
2022/12/12 01:38:48;;;;;;;29.13;13.75;;;;;;;0.38;92.09;101178.53;6280619;22;20019;-78
2022/12/12 01:41:15;;;;;;;22.58;13.25;;;;;;;0.38;91.81;101188.25;6280571;22;20283;-79
2022/12/12 01:43:42;;;;;;;24.25;12.40;;;;;;;0.38;91.93;101178.53;6280424;22;20331;-79
2022/12/12 01:46:21;;;;;;;20.60;13.30;;;;;;;0.37;91.70;101184.13;6279696;22;20379;-78
2022/12/12 01:48:57;;;;;;;22.30;12.75;;;;;;;0.35;91.70;101187.09;6279978;22;20022;-78
2022/12/12 01:51:26;;;;;;;25.75;13.10;;;;;;;0.33;91.94;101181.44;6254011;22;20023;-78
2022/12/12 01:53:59;;;;;;;24.85;14.30;;;;;;;0.32;91.79;101188.56;6280209;22;20024;-78
2022/12/12 01:56:26;;;;;;;23.45;13.40;;;;;;;0.30;91.99;101188.16;6253186;22;20016;-78
2022/12/12 01:58:54;;;;;;;25.85;13.95;;;;;;;0.28;91.94;101189.63;6280580;22;20012;-77
2022/12/12 02:01:22;;;;;;;28.33;13.80;;;;;;;0.29;92.03;101191.88;6280152;22;20012;-77
2022/12/12 02:03:49;;;;;;;28.25;14.45;;;;;;;0.25;92.20;101187.72;6279623;22;20047;-77
2022/12/12 02:06:21;;;;;;;25.02;13.70;;;;;;;0.25;92.34;101188.47;6280473;22;20079;-77
2022/12/12 02:08:51;;;;;;;22.40;13.10;;;;;;;0.25;92.26;101196.34;6280375;22;20012;-77
2022/12/12 02:11:17;;;;;;;25.55;13.43;;;;;;;0.26;92.30;101199.69;6280327;22;20429;-78
2022/12/12 02:13:44;;;;;;;23.02;12.77;;;;;;;0.24;92.20;101194.06;6278709;22;20059;-77
2022/12/12 02:16:45;;;;;;;25.98;13.48;;;;;;;0.26;92.44;101197.09;6277425;22;20471;-77
2022/12/12 02:19:42;;;;;;;23.65;13.02;;;;;;;0.29;92.35;101191.88;6252674;22;20035;-79
2022/12/12 02:22:29;;;;;;;20.80;13.20;;;;;;;0.29;92.31;101194.50;6279531;22;20503;-77
2022/12/12 02:25:33;;;;;;;20.08;12.40;;;;;;;0.26;92.33;101191.84;6216647;22;20044;-76
2022/12/12 02:28:11;;;;;;;24.10;13.20;;;;;;;0.24;92.34;101194.06;6280257;22;20020;-77
2022/12/12 02:30:56;;;;;;;23.40;13.82;;;;;;;0.25;92.38;101201.56;6252703;22;20023;-78
2022/12/12 02:33:33;;;;;;;19.52;12.07;;;;;;;0.25;92.31;101195.56;6280185;22;20024;-78
2022/12/12 02:36:24;;;;;;;24.65;13.32;;;;;;;0.25;92.30;101200.81;6280475;22;20436;-78
2022/12/12 02:39:17;;;;;;;26.95;13.63;;;;;;;0.22;92.49;101197.03;6280701;22;20016;-78
2022/12/12 02:41:52;;;;;;;21.58;12.57;;;;;;;0.22;92.63;101206.75;6253086;22;20074;-78
2022/12/12 02:44:57;;;;;;;22.83;13.07;;;;;;;0.21;92.71;101195.53;6280190;22;20354;-78
2022/12/12 02:47:30;;;;;;;20.40;12.90;;;;;;;0.20;92.43;101208.97;6205824;22;20082;-77
2022/12/12 02:49:59;;;;;;;23.55;14.00;;;;;;;0.22;92.46;101201.53;6253432;22;20370;-78
2022/12/12 02:52:26;;;;;;;24.48;13.40;;;;;;;0.23;92.43;101206.41;6279721;22;20016;-78
2022/12/12 02:54:53;;;;;;;26.35;14.02;;;;;;;0.22;92.66;101198.91;6252471;22;20027;-78
2022/12/12 02:57:24;;;;;;;24.77;14.10;;;;;;;0.20;92.02;101195.88;6279667;22;20016;-78
2022/12/12 02:59:55;;;;;;;21.85;12.55;;;;;;;0.14;92.53;101195.44;6279556;22;20016;-78
2022/12/12 03:02:40;;;;;;;25.00;13.70;;;;;;;0.14;92.54;101203.31;6279472;22;20016;-78
2022/12/12 03:08:51;;;;;;;19.65;11.73;;;;;;;0.10;92.59;101201.75;6279642;22;20022;-78
2022/12/12 03:11:55;;;;;;;23.02;12.70;;;;;;;0.08;92.68;101198.72;6279993;22;20016;-77
2022/12/12 03:14:40;;;;;;;21.02;11.57;;;;;;;0.05;92.59;101209.91;6279149;22;20019;-77
2022/12/12 03:17:14;;;;;;;28.83;14.38;;;;;;;0.04;92.84;101208.41;6279537;22;20335;-77
2022/12/12 03:19:50;;;;;;;26.92;12.77;;;;;;;0.02;92.63;101208.00;6279959;22;20047;-77
2022/12/12 03:22:26;;;;;;;21.88;13.07;;;;;;;-0.03;92.88;101214.34;6279522;22;20016;-77
2022/12/12 03:25:12;;;;;;;21.38;12.65;;;;;;;-0.05;92.83;101212.06;6252794;22;20040;-77
2022/12/12 03:27:50;;;;;;;24.58;12.50;;;;;;;-0.04;92.84;101218.81;6252341;22;20017;-77
2022/12/12 03:30:18;;;;;;;50.90;12.95;;;;;;;-0.09;92.80;101219.13;6279112;22;20012;-77
2022/12/12 03:32:54;;;;;;;20.67;12.43;;;;;;;-0.15;92.87;101215.28;6279241;22;20415;-78
2022/12/12 03:35:37;;;;;;;22.35;12.88;;;;;;;-0.19;92.93;101213.75;6279547;22;20027;-77
2022/12/12 03:38:10;;;;;;;24.73;13.27;;;;;;;-0.24;93.24;101212.19;6252306;22;20409;-78
2022/12/12 03:40:54;;;;;;;25.00;13.50;;;;;;;-0.27;93.20;101220.72;6279703;22;20020;-78
2022/12/12 03:43:25;;;;;;;20.48;12.43;;;;;;;-0.29;93.24;101216.97;6251971;22;20012;-78
2022/12/12 03:45:58;;;;;;;26.60;13.00;;;;;;;-0.34;93.27;101218.78;6279698;22;20096;-78
2022/12/12 03:48:30;;;;;;;23.98;12.88;;;;;;;-0.38;93.24;101212.72;6279951;22;20012;-78
2022/12/12 03:50:59;;;;;;;;;;;;;;;-0.44;93.10;101206.31;6253538;22;20024;-78
2022/12/12 03:53:31;;;;;;;19.55;11.43;;;;;;;-0.48;93.66;101210.00;6279736;22;20361;-77
2022/12/12 03:56:04;;;;;;;21.98;11.98;;;;;;;-0.51;93.64;101213.31;6279892;22;20095;-78
2022/12/12 03:58:52;;;;;;;21.58;13.20;;;;;;;-0.53;93.85;101212.91;6278784;22;20020;-78
2022/12/12 04:01:24;;;;;;;19.10;12.40;;;;;;;-0.58;93.94;101213.19;6252286;22;20363;-78
2022/12/12 04:03:54;;;;;;;;;;;;;;;-0.63;93.80;101206.41;6280052;22;20091;-78
2022/12/12 04:06:35;;;;;;;20.80;10.82;;;;;;;-0.68;93.86;101214.53;6279623;22;19919;-78
2022/12/12 04:15:07;;;;;;;25.17;13.93;;;;;;;-0.80;94.26;101222.59;6279467;22;20012;-77
2022/12/12 04:18:04;;;;;;;26.48;13.18;;;;;;;-0.84;94.83;101227.75;6279382;22;20016;-79
2022/12/12 04:23:34;;;;;;;26.60;13.90;;;;;;;-0.86;95.06;101224.75;6280616;22;20397;-78
2022/12/12 04:29:06;;;;;;;24.30;13.43;;;;;;;-0.95;95.28;101224.22;6280035;22;20012;-77
2022/12/12 04:31:38;;;;;;;24.60;12.68;;;;;;;-0.98;95.00;101226.75;6280581;22;20016;-77
2022/12/12 04:34:13;;;;;;;26.90;13.07;;;;;;;-1.01;95.12;101225.59;6253533;22;20012;-78
2022/12/12 04:36:40;;;;;;;24.83;13.15;;;;;;;-1.04;95.50;101224.44;6280904;22;20469;-78
2022/12/12 04:39:10;;;;;;;21.23;12.02;;;;;;;-1.05;95.35;101235.25;6280598;22;20012;-77
2022/12/12 04:41:40;;;;;;;26.00;13.30;;;;;;;-1.10;95.16;101231.06;6280112;22;20046;-77
2022/12/12 04:44:09;;;;;;;23.45;13.07;;;;;;;-1.14;95.10;101239.94;6280649;22;20451;-77
2022/12/12 04:46:38;;;;;;;23.48;13.07;;;;;;;-1.15;95.58;101239.19;6280259;22;20426;-77
2022/12/12 04:49:12;;;;;;;26.27;13.73;;;;;;;-1.16;95.64;101232.44;6280606;22;20450;-77
2022/12/12 04:51:43;;;;;;;22.00;11.98;;;;;;;-1.16;95.77;101237.66;6253551;22;20441;-77
2022/12/12 04:54:18;;;;;;;28.23;13.47;;;;;;;-1.19;95.54;101240.97;6253088;22;20492;-77
2022/12/12 04:56:50;;;;;;;23.77;13.02;;;;;;;-1.21;95.87;101242.44;6279907;22;20803;-77
2022/12/12 04:59:17;;;;;;;;;;;;;;;-1.24;95.73;101232.69;6280956;22;20016;-77
2022/12/12 05:01:52;;;;;;;22.67;11.85;;;;;;;-1.27;96.13;101236.75;6280561;22;19919;-78
2022/12/12 05:04:28;;;;;;;21.17;12.00;;;;;;;-1.29;95.80;101244.16;6280364;22;20047;-78
2022/12/12 05:07:10;;;;;;;23.33;12.52;;;;;;;-1.34;96.08;101234.00;6281280;22;20016;-78
2022/12/12 05:09:37;;;;;;;23.20;12.77;;;;;;;-1.37;96.30;101226.84;6280404;22;20008;-78
2022/12/12 05:12:04;;;;;;;22.23;13.02;;;;;;;-1.39;96.04;101231.66;6279633;22;20020;-76
2022/12/12 05:14:31;;;;;;;24.67;12.70;;;;;;;-1.41;96.01;101224.16;6280249;22;20020;-77
2022/12/12 05:17:05;;;;;;;28.38;14.38;;;;;;;-1.48;96.44;101231.88;6280492;22;20027;-77
2022/12/12 05:19:32;;;;;;;25.30;13.20;;;;;;;-1.50;95.79;101230.69;6252885;22;20023;-77
2022/12/12 05:21:58;;;;;;;21.17;12.38;;;;;;;-1.52;96.37;101232.91;6280701;22;20016;-77
2022/12/12 05:24:29;;;;;;;23.90;13.43;;;;;;;-1.56;96.57;101238.06;6280770;22;20043;-78
2022/12/12 05:26:58;;;;;;;21.70;12.25;;;;;;;-1.55;96.45;101238.81;6252680;22;20562;-78
2022/12/12 05:29:25;;;;;;;26.70;12.63;;;;;;;-1.57;96.71;101241.75;6253593;22;20353;-78
2022/12/12 05:31:51;;;;;;;28.92;12.82;;;;;;;-1.60;97.01;101239.84;6253268;22;20042;-77
2022/12/12 05:34:18;;;;;;;26.83;13.43;;;;;;;-1.61;97.33;101240.97;6280435;22;20016;-77
2022/12/12 05:36:44;;;;;;;24.65;13.63;;;;;;;-1.66;97.13;101235.25;6252780;22;20058;-77
2022/12/12 05:39:11;;;;;;;26.33;13.80;;;;;;;-1.71;97.19;101237.03;6280221;22;20395;-77
2022/12/12 05:41:37;;;;;;;23.35;12.65;;;;;;;-1.73;97.18;101230.66;6252126;22;20019;-77
2022/12/12 05:44:04;;;;;;;27.52;13.13;;;;;;;-1.75;97.67;101235.47;6253050;22;20082;-77
2022/12/12 05:46:31;;;;;;;24.40;13.02;;;;;;;-1.74;97.76;101240.34;6279926;22;20012;-78
2022/12/12 05:48:58;;;;;;;24.00;13.32;;;;;;;-1.74;97.53;101240.34;6253133;22;20031;-78
2022/12/12 05:51:24;;;;;;;24.30;13.30;;;;;;;-1.77;97.62;101243.63;6253240;22;20027;-78
2022/12/12 05:53:51;;;;;;;25.80;13.32;;;;;;;-1.80;97.57;101243.56;6252240;22;20473;-78
2022/12/12 05:56:18;;;;;;;24.63;13.23;;;;;;;-1.82;97.16;101251.72;6252496;22;20027;-78
2022/12/12 05:58:45;;;;;;;23.23;12.20;;;;;;;-1.87;97.81;101252.00;6280215;22;20507;-78
2022/12/12 06:01:13;;;;;;;22.90;12.70;;;;;;;-1.89;97.73;101250.81;6252525;22;20016;-78
2022/12/12 06:03:41;;;;;;;24.33;13.55;;;;;;;-1.88;97.81;101258.31;6278273;22;20024;-78
2022/12/12 06:06:07;;;;;;;25.00;13.40;;;;;;;-1.89;98.02;101259.41;6280095;22;20022;-78
2022/12/12 06:08:34;;;;;;;26.08;12.20;;;;;;;-1.89;98.08;101261.25;6279396;22;20043;-78
2022/12/12 06:11:04;;;;;;;24.13;13.40;;;;;;;-1.96;97.88;101259.25;6280267;22;20023;-78
2022/12/12 06:13:30;;;;;;;27.60;12.88;;;;;;;-1.98;97.96;101255.47;6279922;22;20473;-78
2022/12/12 06:15:57;;;;;;;23.73;12.43;;;;;;;-2.03;98.48;101253.91;6280506;22;20027;-77
2022/12/12 06:18:23;;;;;;;23.65;13.15;;;;;;;-2.01;98.23;101256.94;6280078;22;20016;-77
2022/12/12 06:20:50;;;;;;;25.45;12.90;;;;;;;-2.02;98.30;101260.66;6280121;22;20016;-77
2022/12/12 06:23:16;;;;;;;27.92;14.07;;;;;;;-2.05;98.55;101262.09;6252579;22;20409;-77
2022/12/12 06:25:43;;;;;;;23.35;12.77;;;;;;;-2.04;98.32;101268.06;6253054;22;20110;-77
2022/12/12 06:28:09;;;;;;;23.98;13.18;;;;;;;-2.06;98.31;101268.41;6280244;22;20016;-77
2022/12/12 06:30:36;;;;;;;27.90;14.48;;;;;;;-2.09;98.58;101263.84;6279778;22;20016;-77
2022/12/12 06:33:02;;;;;;;24.73;13.15;;;;;;;-2.10;98.47;101264.94;6252502;22;20027;-77
2022/12/12 06:35:29;;;;;;;31.25;13.40;;;;;;;-2.12;98.62;101261.16;6279969;22;20017;-77
2022/12/12 06:37:55;;;;;;;25.83;13.75;;;;;;;-2.13;98.59;101264.88;6280083;22;20012;-77
2022/12/12 06:40:22;;;;;;;24.92;12.65;;;;;;;-2.15;98.81;101267.06;6252129;22;20028;-77
2022/12/12 06:42:48;;;;;;;24.77;12.48;;;;;;;-2.17;99.12;101267.41;6252517;22;20083;-77
2022/12/12 06:45:15;;;;;;;26.00;13.07;;;;;;;-2.19;99.03;101266.97;6280013;22;20023;-76
2022/12/12 06:47:42;;;;;;;20.73;12.55;;;;;;;-2.21;98.82;101268.41;6279909;22;20019;-76
2022/12/12 06:50:09;;;;;;;21.67;13.15;;;;;;;-2.27;99.18;101264.56;6252917;22;20023;-78
2022/12/12 06:52:36;;;;;;;21.25;12.65;;;;;;;-2.32;99.24;101265.56;6279048;22;20425;-78
2022/12/12 06:55:03;;;;;;;27.25;13.90;;;;;;;-2.32;98.66;101268.16;6279822;22;20433;-79
2022/12/12 06:57:30;;;;;;;26.70;13.10;;;;;;;-2.31;98.96;101274.13;6252250;22;20024;-80
2022/12/12 06:59:56;;;;;;;28.35;13.35;;;;;;;-2.33;99.04;101271.13;6279941;22;20428;-78
2022/12/12 07:02:22;;;;;;;26.20;13.50;;;;;;;-2.37;98.82;101268.44;6279237;22;20016;-78
2022/12/12 07:04:55;;;;;;;25.08;13.35;;;;;;;-2.40;98.59;101277.69;6252561;22;20141;-80
2022/12/12 07:07:22;;;;;;;26.17;13.57;;;;;;;-2.44;98.94;101279.47;6279144;22;20019;-79
2022/12/12 07:09:48;;;;;;;26.90;12.90;;;;;;;-2.47;99.18;101276.78;6279510;22;20043;-78
2022/12/12 07:12:15;;;;;;;26.92;13.20;;;;;;;-2.49;99.08;101292.00;6279563;22;20026;-78
2022/12/12 07:14:41;;;;;;;26.23;13.15;;;;;;;-2.51;99.03;101286.38;6280265;22;20016;-79
2022/12/12 07:17:08;;;;;;;29.80;13.50;;;;;;;-2.52;99.35;101290.81;6253028;22;20055;-78
2022/12/12 07:19:34;;;;;;;29.15;13.75;;;;;;;-2.51;99.00;101296.78;6253513;22;20017;-77
2022/12/12 07:22:01;;;;;;;31.80;14.05;;;;;;;-2.53;99.14;101298.97;6253114;22;20020;-78
2022/12/12 07:24:35;;;;;;;27.85;13.50;;;;;;;-2.55;99.57;101307.13;6279950;22;20023;-77
2022/12/12 07:27:02;;;;;;;23.92;11.90;;;;;;;-2.57;99.09;101305.97;6279114;22;20409;-78
2022/12/12 07:29:29;;;;;;;26.90;12.73;;;;;;;-2.59;99.34;101298.47;6279657;22;20438;-78
2022/12/12 07:31:56;;;;;;;24.85;13.88;;;;;;;-2.62;99.69;101306.97;6279672;22;20516;-77
2022/12/12 07:34:23;;;;;;;24.92;13.80;;;;;;;-2.65;99.62;101304.25;6279967;22;20016;-79
2022/12/12 07:36:49;;;;;;;23.45;13.05;;;;;;;-2.66;99.72;101315.78;6280041;22;20395;-80
2022/12/12 07:39:16;;;;;;;29.73;13.55;;;;;;;-2.69;100.00;101304.94;6252931;22;20012;-77
2022/12/12 07:41:46;;;;;;;26.15;12.75;;;;;;;-2.70;100.00;101311.22;6280736;22;20040;-79
2022/12/12 07:44:15;;;;;;;26.50;14.50;;;;;;;-2.70;99.92;101307.88;6252558;22;20067;-77
2022/12/12 07:46:41;;;;;;;24.02;12.38;;;;;;;-2.70;100.00;101318.28;6280082;22;20024;-76
2022/12/12 07:49:08;;;;;;;20.80;12.13;;;;;;;-2.71;100.00;101317.53;6280156;22;20012;-77
2022/12/12 07:51:35;;;;;;;22.55;13.02;;;;;;;-2.72;100.00;101328.31;6280414;22;20016;-77
2022/12/12 07:54:01;;;;;;;24.95;13.10;;;;;;;-2.72;100.00;101330.91;6253862;22;20020;-77
2022/12/12 07:56:28;;;;;;;26.98;13.68;;;;;;;-2.74;100.00;101330.47;6281897;22;20074;-78
2022/12/12 07:58:55;;;;;;;26.88;13.90;;;;;;;-2.74;100.00;101340.91;6281844;22;20020;-79
2022/12/12 08:01:24;;;;;;;23.23;12.70;;;;;;;-2.76;100.00;101343.84;6253893;22;20036;-78
2022/12/12 08:03:52;;;;;;;29.55;14.13;;;;;;;-2.75;100.00;101342.00;6281359;22;20449;-78
2022/12/12 08:06:20;;;;;;;27.38;13.95;;;;;;;-2.73;100.00;101345.03;6279788;22;20017;-79
2022/12/12 08:08:48;;;;;;;37.15;13.88;;;;;;;-2.70;100.00;101346.97;6281474;22;20066;-78
2022/12/12 08:11:18;;;;;;;29.92;14.07;;;;;;;-2.69;100.00;101354.44;6281391;22;20036;-78
2022/12/12 08:13:45;;;;;;;30.63;14.25;;;;;;;-2.68;100.00;101355.22;6281576;22;20020;-78
2022/12/12 08:16:15;;;;;;;31.70;14.05;;;;;;;-2.67;100.00;101351.50;6253823;22;20020;-79
2022/12/12 08:18:42;;;;;;;24.95;13.60;;;;;;;-2.66;100.00;101352.28;6254289;22;20016;-79
2022/12/12 08:21:10;;;;;;;32.30;14.10;;;;;;;-2.64;100.00;101353.47;6281728;22;20023;-79
2022/12/12 08:23:38;;;;;;;31.52;13.77;;;;;;;-2.63;99.74;101357.56;6279990;22;20752;-79
2022/12/12 08:26:07;;;;;;;28.40;14.93;;;;;;;-2.64;100.00;101356.06;6281592;22;20023;-79
2022/12/12 08:28:34;;;;;;;31.63;14.55;;;;;;;-2.63;100.00;101359.44;6281712;22;20012;-79
2022/12/12 08:31:01;;;;;;;30.20;16.08;;;;;;;-2.63;100.00;101360.19;6281469;22;20446;-80
2022/12/12 08:33:29;;;;;;;31.27;15.27;;;;;;;-2.61;99.85;101370.28;6253903;22;20012;-78
2022/12/12 08:35:55;;;;;;;30.35;15.07;;;;;;;-2.61;100.00;101367.66;6281727;22;20019;-79
2022/12/12 08:38:23;;;;;;;22.35;12.32;;;;;;;-2.62;100.00;101369.53;6281639;22;20483;-78
2022/12/12 08:40:49;;;;;;;31.10;15.48;;;;;;;-2.64;99.91;101361.28;6255202;22;20026;-79
2022/12/12 08:43:16;;;;;;;32.50;16.27;;;;;;;-2.61;100.00;101363.22;6282153;22;20086;-78
2022/12/12 08:45:44;;;;;;;30.52;14.55;;;;;;;-2.58;100.00;101359.94;6254247;22;20024;-79
2022/12/12 08:48:11;;;;;;;32.53;15.77;;;;;;;-2.58;100.00;101362.56;6280903;22;20018;-79
2022/12/12 08:50:39;;;;;;;29.48;15.35;;;;;;;-2.59;100.00;101353.22;6281925;22;20055;-80
2022/12/12 08:53:06;;;;;;;28.00;15.10;;;;;;;-2.59;100.00;101352.47;6279835;22;20012;-79
2022/12/12 08:55:33;;;;;;;31.00;15.70;;;;;;;-2.57;100.00;101352.88;6281313;22;20013;-78
2022/12/12 08:57:59;;;;;;;39.53;16.02;;;;;;;-2.55;100.00;101351.47;6280966;22;20115;-78
2022/12/12 09:00:26;;;;;;;29.02;15.77;;;;;;;-2.53;100.00;101362.31;6281586;22;20461;-79
2022/12/12 09:02:53;;;;;;;26.42;14.23;;;;;;;-2.54;100.00;101360.03;6253111;22;20098;-75
2022/12/12 09:05:20;;;;;;;27.25;14.32;;;;;;;-2.54;100.00;101360.03;6253330;22;20016;-78
2022/12/12 09:07:46;;;;;;;34.45;15.15;;;;;;;-2.53;100.00;101366.75;6253827;22;20016;-78
2022/12/12 09:10:13;;;;;;;30.27;15.38;;;;;;;-2.52;100.00;101363.81;6280932;22;20024;-78
2022/12/12 09:12:39;;;;;;;29.77;15.82;;;;;;;-2.52;100.00;101358.59;6281275;22;20016;-78
2022/12/12 09:15:08;;;;;;;31.58;16.30;;;;;;;-2.45;100.00;101371.06;6252355;22;20389;-78
2022/12/12 09:17:35;;;;;;;33.30;15.82;;;;;;;-2.44;100.00;101369.97;6280484;22;20345;-78
2022/12/12 09:20:02;;;;;;;32.33;15.35;;;;;;;-2.46;100.00;101367.69;6280906;22;20478;-78
2022/12/12 09:22:29;;;;;;;31.13;16.63;;;;;;;-2.45;100.00;101373.69;6253533;22;20016;-78
2022/12/12 09:24:56;;;;;;;31.23;15.65;;;;;;;-2.43;100.00;101377.47;6279244;22;20024;-78
2022/12/12 09:27:22;;;;;;;28.13;14.80;;;;;;;-2.40;100.00;101376.03;6280705;22;20481;-77
2022/12/12 09:29:49;;;;;;;30.95;14.57;;;;;;;-2.39;100.00;101370.47;6280950;22;20020;-78
2022/12/12 09:32:15;;;;;;;30.15;15.93;;;;;;;-2.36;100.00;101372.41;6280078;22;20016;-77
2022/12/12 09:34:49;;;;;;;28.42;15.13;;;;;;;-2.32;100.00;101366.50;6281266;22;20043;-77
2022/12/12 09:37:16;;;;;;;35.70;14.32;;;;;;;-2.36;100.00;101367.19;6253976;22;20446;-77
2022/12/12 09:39:43;;;;;;;33.08;15.18;;;;;;;-2.31;100.00;101363.56;6281291;22;20051;-79
2022/12/12 09:42:25;;;;;;;28.65;14.60;;;;;;;-2.25;100.00;101358.88;6281256;22;20020;-80
2022/12/12 09:44:56;;;;;;;35.63;16.33;;;;;;;-2.19;100.00;101360.13;6281655;22;20361;-78
2022/12/12 09:47:40;;;;;;;29.45;15.85;;;;;;;-2.17;100.00;101360.56;6253256;22;20016;-80
2022/12/12 09:50:19;;;;;;;27.58;14.30;;;;;;;-2.18;100.00;101364.25;6281370;22;20016;-79
2022/12/12 09:52:46;;;;;;;26.48;13.75;;;;;;;-2.17;100.00;101365.78;6254310;22;20012;-79
2022/12/12 09:55:19;;;;;;;30.88;14.20;;;;;;;-2.18;99.99;101359.03;6280554;22;20019;-79
2022/12/12 09:58:13;;;;;;;29.63;15.00;;;;;;;-2.15;100.00;101360.97;6253601;22;20020;-79
2022/12/12 10:00:45;;;;;;;32.50;15.32;;;;;;;-2.11;100.00;101362.56;6280280;22;20035;-78
2022/12/12 10:03:32;;;;;;;23.52;13.35;;;;;;;-2.09;100.00;101359.63;6253553;22;20060;-78
2022/12/12 10:06:08;;;;;;;26.52;14.55;;;;;;;-2.06;100.00;101359.72;6253885;22;20016;-78
2022/12/12 10:09:18;;;;;;;29.40;14.27;;;;;;;-2.02;99.64;101363.16;6281016;22;20012;-77
2022/12/12 10:11:49;;;;;;;26.50;14.27;;;;;;;-1.96;99.63;101360.28;6281196;22;20022;-77
2022/12/12 10:14:46;;;;;;;27.50;15.10;;;;;;;-1.92;99.81;101361.09;6280980;22;20074;-78
2022/12/12 10:17:25;;;;;;;28.50;14.43;;;;;;;-1.88;99.31;101359.34;6273101;22;20020;-78
2022/12/12 10:20:00;;;;;;;28.75;14.32;;;;;;;-1.83;99.59;101357.22;6281407;22;20053;-78
2022/12/12 10:22:42;;;;;;;28.77;14.57;;;;;;;-1.82;99.52;101347.53;6281485;22;20074;-78
2022/12/12 10:25:21;;;;;;;26.40;14.40;;;;;;;-1.80;99.47;101350.56;6281042;22;20045;-79
2022/12/12 10:27:58;;;;;;;32.63;13.98;;;;;;;-1.79;98.88;101347.63;6280858;22;20430;-77
2022/12/12 10:30:29;;;;;;;22.13;12.45;;;;;;;-1.79;98.54;101347.63;6280344;22;20409;-78
2022/12/12 10:33:19;;;;;;;29.52;14.45;;;;;;;-1.76;98.43;101346.94;6281303;22;20016;-79
2022/12/12 10:36:18;;;;;;;24.67;12.77;;;;;;;-1.72;98.41;101350.41;6281313;22;20012;-79
2022/12/12 10:39:09;;;;;;;27.15;12.88;;;;;;;-1.71;97.84;101351.16;6254019;22;20074;-79
2022/12/12 10:41:48;;;;;;;27.02;14.13;;;;;;;-1.67;97.71;101341.53;6281374;22;20019;-78
2022/12/12 10:44:38;;;;;;;28.25;12.93;;;;;;;-1.63;97.96;101337.16;6280188;22;20099;-79
2022/12/12 11:18:31;;;;;;;26.42;13.00;;;;;;;-1.25;95.14;101318.13;6179772;22;1273036;-78
2022/12/12 11:21:07;;;;;;;24.48;13.10;;;;;;;-1.20;95.24;101324.94;6228002;22;20481;-77
2022/12/12 11:23:38;;;;;;;29.88;14.45;;;;;;;-1.17;95.15;101319.75;6227793;22;20013;-78
2022/12/12 11:26:12;;;;;;;31.45;15.63;;;;;;;-1.13;95.13;101323.19;6227403;22;20456;-76
2022/12/12 11:28:40;;;;;;;24.17;13.15;;;;;;;-1.12;94.87;101321.34;6251891;22;20021;-79
2022/12/12 11:31:11;;;;;;;28.67;14.25;;;;;;;-1.09;94.70;101321.41;6227290;23;20020;-77
2022/12/12 11:33:51;;;;;;;32.90;15.00;;;;;;;-1.05;94.57;101321.47;6227779;22;20017;-80
2022/12/12 11:36:33;;;;;;;31.00;14.88;;;;;;;-1.04;94.70;101328.22;6227315;22;20474;-80
2022/12/12 11:39:02;;;;;;;28.15;14.98;;;;;;;-1.01;94.05;101322.31;6225286;23;20021;-77
2022/12/12 11:41:50;;;;;;;26.70;14.38;;;;;;;-1.03;94.29;101321.88;6227534;22;20013;-77
2022/12/12 11:44:24;;;;;;;33.55;15.90;;;;;;;-1.01;94.70;101319.69;6200217;23;20021;-78
2022/12/12 11:46:51;;;;;;;31.15;15.82;;;;;;;-1.02;94.42;101313.72;6227893;22;20021;-81
2022/12/12 11:49:19;;;;;;;30.40;14.30;;;;;;;-1.02;94.13;101318.19;6225574;23;20358;-77
2022/12/12 11:51:46;;;;;;;33.35;16.67;;;;;;;-0.99;94.09;101314.88;6227511;23;20017;-78
2022/12/12 11:54:21;;;;;;;27.83;14.45;;;;;;;-0.97;94.01;101312.66;6227197;22;20480;-78
2022/12/12 11:56:56;;;;;;;27.50;15.13;;;;;;;-0.96;94.20;101316.78;6223768;23;20028;-79
2022/12/12 11:59:28;;;;;;;27.60;14.13;;;;;;;-0.93;94.31;101318.72;6220702;22;20017;-78
2022/12/12 12:02:23;;;;;;;25.63;13.55;;;;;;;-0.91;94.00;101308.69;6220909;22;20009;-78
2022/12/12 12:05:07;;;;;;;26.90;15.07;;;;;;;-0.87;93.79;101317.34;6220801;22;20017;-79
2022/12/12 12:08:38;;;;;;;27.00;14.82;;;;;;;-0.81;93.87;101309.97;6244570;22;20459;-79
2022/12/12 12:11:28;;;;;;;25.45;13.27;;;;;;;-0.80;93.41;101306.25;6127208;23;20018;-79
2022/12/12 12:14:10;;;;;;;25.73;13.07;;;;;;;-0.80;93.27;101306.97;6127684;23;20453;-79
2022/12/12 12:16:50;;;;;;;27.75;14.38;;;;;;;-0.80;93.08;101314.09;6127776;23;20018;-79
2022/12/12 12:19:35;;;;;;;28.50;13.30;;;;;;;-0.80;93.13;101308.88;6127711;23;20022;-80